Sabahat Telli — TCSQ6 — position and weather

sailwx.info

Track history (hours):
 
Tides and Currents Weather Stations Pressure Air Temp Water Temp Dewpoint Dewpoint Depression Visibility Wind Speed Wind Dir Waves Ship Positions

Sabahat Telli

Last reported at 2016-Jul-27 07:15 UTC. Time now 2016-Jul-28 10:33 UTC.
Position N 40°56' E 028°57'.

Length 99 m; draft 4.4 m.

Type: Tanker. MMSI: 271000961.

Date/timePositionNaut miles runAvg speedWind from/ knotsBaromVisibWave heightAir tempDewpointWater temp
2016-Jul-27 07:15N 40°56' E 028°57'912.5
2016-Jul-27 06:33N 40°49' E 029°05'1312.6
2016-Jul-27 05:34N 40°45' E 029°20'  
2016-Jul-21 17:31N 44°17' E 034°08'1111.5
2016-Jul-21 16:34N 44°20' E 034°23'1211.6
2016-Jul-21 15:33N 44°24' E 034°38'1212.0
2016-Jul-21 14:33N 44°28' E 034°54'  
2016-Jul-17 11:24N 44°60' E 036°30'1112.8
2016-Jul-17 10:33N 44°49' E 036°31'  
Track history (hours):
 
Tides and Currents Weather Stations Pressure Air Temp Water Temp Dewpoint Dewpoint Depression Visibility Wind Speed Wind Dir Waves Ship Positions

Sabahat Telli

Last reported at 2016-Jul-27 07:15 UTC. Time now 2016-Jul-28 10:33 UTC.
Position N 40°56' E 028°57'.

Length 99 m; draft 4.4 m.

Type: Tanker. MMSI: 271000961.

Date/timePositionNaut miles runAvg speedWind from/ knotsBaromVisibWave heightAir tempDewpointWater temp
2016-Jul-27 07:15N 40°56' E 028°57'912.5
2016-Jul-27 06:33N 40°49' E 029°05'1312.6
2016-Jul-27 05:34N 40°45' E 029°20'  
2016-Jul-21 17:31N 44°17' E 034°08'1111.5
2016-Jul-21 16:34N 44°20' E 034°23'1211.6
2016-Jul-21 15:33N 44°24' E 034°38'1212.0
2016-Jul-21 14:33N 44°28' E 034°54'  
2016-Jul-17 11:24N 44°60' E 036°30'1112.8
2016-Jul-17 10:33N 44°49' E 036°31'  

Dump ship's entire track history